Time;durP1;ratioP1;P1;durP2;ratioP2;P2;SDS_P1;SDS_P2;PMS_P1;PMS_P2;Temp;Humidity;BMP_temperature;BMP_pressure;BME280_temperature;BME280_humidity;BME280_pressure;Samples;Min_cycle;Max_cycle;Signal;HPM_P1;HPM_P2
2022/04/30 00:02:06;;;;;;;8.25;3.30;;;;;;;5.59;66.19;100164.59;8521529;27;20063;-72
2022/04/30 00:06:07;;;;;;;8.95;3.85;;;;;;;5.57;66.50;100167.53;8457109;28;20077;-72
2022/04/30 00:10:08;;;;;;;8.13;3.53;;;;;;;5.56;66.37;100160.53;8456493;28;20445;-72
2022/04/30 00:14:09;;;;;;;8.23;3.15;;;;;;;5.57;66.41;100161.34;8456665;28;20406;-72
2022/04/30 00:18:11;;;;;;;9.95;3.85;;;;;;;5.55;66.61;100168.84;8456999;28;20070;-72
2022/04/30 00:22:12;;;;;;;10.82;4.00;;;;;;;5.53;66.68;100161.88;8457088;28;20459;-72
2022/04/30 00:26:13;;;;;;;11.55;4.32;;;;;;;5.56;66.54;100165.09;8455600;28;20043;-72
2022/04/30 00:30:14;;;;;;;7.05;3.55;;;;;;;5.56;66.78;100170.44;8455139;28;20104;-71
2022/04/30 00:34:16;;;;;;;9.88;3.92;;;;;;;5.56;66.62;100165.09;8405742;28;20563;-73
2022/04/30 00:38:16;;;;;;;7.97;4.32;;;;;;;5.57;66.67;100170.22;8510514;27;20042;-72
2022/04/30 00:42:18;;;;;;;9.35;4.35;;;;;;;5.61;66.84;100162.47;8453918;27;20461;-72
2022/04/30 00:46:21;;;;;;;9.85;3.78;;;;;;;5.59;67.19;100153.88;8456388;27;20047;-72
2022/04/30 00:50:27;;;;;;;8.88;4.45;;;;;;;5.58;67.29;100154.94;8464100;27;20508;-72
2022/04/30 00:54:35;;;;;;;8.15;4.00;;;;;;;5.60;67.05;100160.88;8466678;27;20054;-72
2022/04/30 00:58:38;;;;;;;7.63;4.25;;;;;;;5.60;67.19;100158.19;8477200;27;20065;-72
2022/04/30 01:02:39;;;;;;;10.35;5.32;;;;;;;5.59;67.34;100159.25;8477991;27;20044;-72
2022/04/30 01:06:51;;;;;;;12.60;5.40;;;;;;;5.59;67.42;100159.25;8468027;27;20135;-71
2022/04/30 01:10:52;;;;;;;13.98;6.00;;;;;;;5.58;67.30;100157.63;8487519;28;20130;-71
2022/04/30 01:14:54;;;;;;;16.40;6.03;;;;;;;5.60;67.42;100150.16;8479100;28;20047;-72
2022/04/30 01:18:55;;;;;;;13.52;6.05;;;;;;;5.60;67.37;100159.00;8438222;28;20046;-73
2022/04/30 01:23:04;;;;;;;15.50;6.65;;;;;;;5.58;67.68;100157.63;8443819;28;20052;-72
2022/04/30 01:27:06;;;;;;;15.38;6.82;;;;;;;5.61;67.40;100146.41;8445750;28;20598;-71
2022/04/30 01:37:22;;;;;;;16.25;7.00;;;;;;;5.64;67.33;100153.94;8410740;28;20091;-72
2022/04/30 01:39:52;;;;;;;15.15;7.07;;;;;;;5.64;67.28;100151.25;8390499;28;20060;-72
2022/04/30 01:43:52;;;;;;;15.85;6.78;;;;;;;5.64;67.52;100145.91;8380442;28;20528;-73
2022/04/30 01:47:56;;;;;;;17.10;6.13;;;;;;;5.62;67.50;100148.03;8404084;28;20498;-72
2022/04/30 01:51:57;;;;;;;14.35;6.22;;;;;;;5.59;67.53;100143.16;8461432;27;20513;-72
2022/04/30 01:55:59;;;;;;;17.92;6.45;;;;;;;5.60;67.45;100140.25;8482394;27;20410;-72
2022/04/30 02:00:03;;;;;;;20.45;7.38;;;;;;;5.62;67.14;100134.63;8496384;27;20127;-72
2022/04/30 02:04:05;;;;;;;24.77;7.13;;;;;;;5.63;66.90;100133.56;8475797;27;20513;-72
2022/04/30 02:08:09;;;;;;;21.58;7.47;;;;;;;5.62;66.82;100131.94;8484469;27;20043;-72
2022/04/30 02:12:10;;;;;;;15.02;6.72;;;;;;;5.65;66.48;100126.09;8475521;27;20043;-72
2022/04/30 02:16:11;;;;;;;19.67;7.30;;;;;;;5.71;65.92;100125.09;8493508;27;20451;-72
2022/04/30 02:20:18;;;;;;;18.77;6.22;;;;;;;5.76;65.59;100125.16;8487775;27;20063;-72
2022/04/30 02:24:19;;;;;;;17.55;6.72;;;;;;;5.78;65.39;100114.97;8473282;27;20051;-73
2022/04/30 02:28:20;;;;;;;20.38;7.25;;;;;;;5.76;65.32;100111.75;8474885;27;20056;-72
2022/04/30 02:32:22;;;;;;;19.70;7.55;;;;;;;5.76;65.36;100117.09;8460366;28;20040;-72
2022/04/30 02:36:28;;;;;;;23.30;8.48;;;;;;;5.72;65.45;100115.97;8463903;27;20421;-72
2022/04/30 02:40:30;;;;;;;21.73;8.68;;;;;;;5.68;65.50;100109.50;8489280;27;20042;-71
2022/04/30 02:44:31;;;;;;;21.52;8.13;;;;;;;5.67;65.18;100107.88;8512291;27;20069;-72
2022/04/30 02:48:32;;;;;;;24.38;7.68;;;;;;;5.59;65.53;100101.09;8482472;27;20051;-72
2022/04/30 02:52:33;;;;;;;21.65;7.63;;;;;;;5.59;65.40;100100.31;8519401;27;20632;-72
2022/04/30 02:56:34;;;;;;;18.80;7.45;;;;;;;5.59;65.23;100100.31;8499513;27;20042;-72
2022/04/30 03:00:51;;;;;;;18.85;7.32;;;;;;;5.60;65.40;100093.88;8522108;27;20058;-72
2022/04/30 03:04:52;;;;;;;18.95;8.50;;;;;;;5.55;65.48;100096.50;8520879;27;20050;-72
2022/04/30 03:08:54;;;;;;;20.50;8.93;;;;;;;5.52;65.50;100095.13;8521724;27;20106;-73
2022/04/30 03:12:55;;;;;;;23.20;8.93;;;;;;;5.53;65.38;100097.56;8516562;27;20643;-72
2022/04/30 03:25:19;;;;;;;20.80;9.68;;;;;;;5.48;65.55;100089.47;8502008;27;20058;-72
2022/04/30 03:29:20;;;;;;;21.95;9.10;;;;;;;5.53;65.33;100089.53;8515706;27;20038;-72
2022/04/30 03:33:21;;;;;;;25.45;10.40;;;;;;;5.58;65.39;100083.41;8530102;27;20043;-72
2022/04/30 03:37:22;;;;;;;27.50;10.68;;;;;;;5.61;65.00;100084.75;8512583;27;20046;-72
2022/04/30 03:41:23;;;;;;;26.33;10.10;;;;;;;5.60;65.41;100096.56;8520646;27;20067;-72
2022/04/30 03:45:24;;;;;;;24.02;10.95;;;;;;;5.63;65.73;100085.31;8527019;27;20095;-72
2022/04/30 03:49:25;;;;;;;27.50;11.82;;;;;;;5.64;65.81;100086.94;8516925;27;20508;-72
2022/04/30 03:53:26;;;;;;;23.83;11.25;;;;;;;5.67;65.81;100081.06;8514537;27;20068;-72
2022/04/30 03:57:28;;;;;;;31.95;13.13;;;;;;;5.70;65.87;100080.59;8512663;27;20045;-72
2022/04/30 04:01:29;;;;;;;31.25;13.18;;;;;;;5.77;65.58;100086.53;8509353;27;20099;-72
2022/04/30 04:05:31;;;;;;;32.28;13.73;;;;;;;5.85;65.41;100083.41;8513675;27;20042;-72
2022/04/30 04:09:32;;;;;;;27.98;13.95;;;;;;;5.95;65.02;100083.53;8457882;27;20504;-72
2022/04/30 04:17:55;;;;;;;31.20;13.63;;;;;;;6.10;64.59;100086.34;8362124;28;20060;-72
2022/04/30 04:21:56;;;;;;;32.78;14.00;;;;;;;6.19;64.55;100084.81;8371814;28;20445;-72
2022/04/30 04:26:00;;;;;;;35.83;14.27;;;;;;;6.24;64.60;100082.16;8377485;28;20052;-72
2022/04/30 04:30:02;;;;;;;33.85;14.18;;;;;;;6.29;64.53;100090.25;8353954;28;20041;-72
2022/04/30 04:34:03;;;;;;;83.82;31.27;;;;;;;6.33;64.52;100088.69;8355184;28;20049;-72
2022/04/30 04:38:04;;;;;;;83.95;35.85;;;;;;;6.43;64.53;100089.81;8327058;28;20045;-72
2022/04/30 04:42:06;;;;;;;76.68;38.08;;;;;;;6.49;64.41;100094.16;8354125;28;20073;-72
2022/04/30 04:46:08;;;;;;;52.50;27.98;;;;;;;6.56;64.54;100100.09;8354368;28;20092;-72
2022/04/30 04:50:10;;;;;;;45.35;21.80;;;;;;;6.64;64.67;100091.59;8339166;28;20124;-73
2022/04/30 04:54:11;;;;;;;44.55;19.27;;;;;;;6.72;64.42;100093.75;8438447;27;20480;-72
2022/04/30 04:58:12;;;;;;;40.13;17.15;;;;;;;6.83;64.48;100092.75;8509747;27;20148;-72
2022/04/30 05:02:13;;;;;;;47.97;18.20;;;;;;;6.91;64.56;100097.66;8506064;27;20079;-72
2022/04/30 05:06:14;;;;;;;38.45;16.85;;;;;;;7.01;64.57;100092.34;8511890;27;20126;-72
2022/04/30 05:10:16;;;;;;;51.50;23.45;;;;;;;7.12;64.47;100094.00;8485330;27;20126;-72
2022/04/30 05:14:17;;;;;;;52.40;22.88;;;;;;;7.21;64.79;100087.06;8508731;27;20050;-71
2022/04/30 05:18:18;;;;;;;52.38;21.95;;;;;;;7.33;65.01;100088.72;8504764;27;20043;-72
2022/04/30 05:22:19;;;;;;;49.65;19.90;;;;;;;7.44;64.71;100085.00;8509061;27;20076;-72
2022/04/30 05:26:21;;;;;;;33.53;17.00;;;;;;;7.58;64.34;100091.47;8506212;27;20038;-72
2022/04/30 05:30:21;;;;;;;39.47;15.43;;;;;;;7.71;63.78;100096.34;8515549;27;20046;-72
2022/04/30 05:34:22;;;;;;;31.98;14.55;;;;;;;7.83;63.44;100094.22;8508712;27;20488;-72
2022/04/30 05:38:23;;;;;;;46.60;19.40;;;;;;;7.95;63.43;100092.09;8504296;27;20133;-72
2022/04/30 05:42:24;;;;;;;53.35;21.55;;;;;;;8.09;63.09;100096.94;8505294;27;20058;-72
2022/04/30 05:46:26;;;;;;;41.67;18.80;;;;;;;8.20;63.28;100087.78;8491552;27;20074;-72
2022/04/30 05:50:27;;;;;;;35.60;15.48;;;;;;;8.31;63.30;100094.81;8509598;27;20078;-72
2022/04/30 05:54:28;;;;;;;35.67;14.63;;;;;;;8.43;63.74;100092.66;8497572;27;20066;-72
2022/04/30 05:58:29;;;;;;;34.70;15.88;;;;;;;8.52;63.91;100091.03;8513198;27;20635;-73
2022/04/30 06:02:30;;;;;;;39.25;16.30;;;;;;;8.61;63.59;100094.81;8508102;27;20074;-72
2022/04/30 06:06:31;;;;;;;35.03;15.02;;;;;;;8.72;63.17;100091.03;8469667;27;20035;-72
2022/04/30 06:10:32;;;;;;;35.10;14.23;;;;;;;8.87;62.31;100087.47;8515942;27;20063;-72
2022/04/30 06:14:33;;;;;;;35.03;13.80;;;;;;;9.03;61.78;100090.94;8516299;27;20049;-72
2022/04/30 06:18:34;;;;;;;36.35;13.98;;;;;;;9.17;60.94;100091.97;8499795;27;20096;-72
2022/04/30 06:22:36;;;;;;;34.05;13.48;;;;;;;9.36;60.45;100087.56;8515805;27;20041;-72
2022/04/30 06:26:37;;;;;;;30.75;13.18;;;;;;;9.50;60.33;100090.47;8512713;27;20042;-72
2022/04/30 06:30:39;;;;;;;26.27;12.68;;;;;;;9.61;60.01;100098.25;8518772;27;20055;-73
2022/04/30 06:34:40;;;;;;;26.83;12.18;;;;;;;9.77;59.51;100108.94;8531822;27;20042;-72
2022/04/30 06:38:41;;;;;;;29.98;12.15;;;;;;;9.88;58.46;100102.41;8518926;27;20047;-73
2022/04/30 06:42:44;;;;;;;25.55;12.60;;;;;;;9.96;57.67;100105.31;8503909;27;20151;-72
2022/04/30 06:46:45;;;;;;;26.27;13.18;;;;;;;10.13;57.23;100104.91;8516200;27;20049;-73
2022/04/30 06:50:47;;;;;;;36.90;15.07;;;;;;;10.38;56.90;100112.84;8496648;27;20051;-73
2022/04/30 06:59:11;;;;;;;21.92;9.90;;;;;;;10.78;55.46;100105.47;8453517;27;20051;-72
2022/04/30 07:03:15;;;;;;;27.20;10.13;;;;;;;10.98;55.07;100121.47;8508160;27;20393;-73
2022/04/30 07:07:17;;;;;;;16.88;8.88;;;;;;;11.10;53.94;100113.78;8523153;27;20078;-72
2022/04/30 07:11:18;;;;;;;18.05;8.55;;;;;;;11.16;52.60;100112.59;8516725;27;20538;-73
2022/04/30 07:15:19;;;;;;;19.75;8.35;;;;;;;11.27;52.35;100114.09;8481836;27;20035;-73
2022/04/30 07:19:20;;;;;;;23.23;10.30;;;;;;;11.41;52.63;100115.03;8505503;27;20047;-72
2022/04/30 07:23:21;;;;;;;17.30;10.15;;;;;;;11.54;51.92;100118.91;8523771;27;20067;-72
2022/04/30 07:27:22;;;;;;;17.10;8.80;;;;;;;11.66;51.88;100115.78;8527423;27;20404;-72
2022/04/30 07:31:23;;;;;;;26.27;11.85;;;;;;;11.68;51.23;100124.44;8517698;27;20516;-72
2022/04/30 07:35:24;;;;;;;29.83;11.60;;;;;;;11.75;51.33;100124.88;8493942;27;20090;-72
2022/04/30 07:39:25;;;;;;;19.27;9.75;;;;;;;11.87;51.55;100122.56;8470930;27;20044;-73
2022/04/30 07:43:26;;;;;;;19.63;9.27;;;;;;;11.96;51.06;100120.81;8476519;27;20038;-73
2022/04/30 07:47:26;;;;;;;20.17;9.23;;;;;;;12.19;50.83;100125.34;8513988;27;20042;-73
2022/04/30 07:51:34;;;;;;;17.60;9.23;;;;;;;12.35;50.55;100127.81;8504666;27;20050;-72
2022/04/30 07:55:35;;;;;;;15.50;8.00;;;;;;;12.49;50.26;100128.63;8506761;27;20039;-73
2022/04/30 07:59:36;;;;;;;16.95;8.27;;;;;;;12.61;50.05;100126.28;8505151;27;20173;-73
2022/04/30 08:03:40;;;;;;;18.67;8.02;;;;;;;12.62;48.89;100125.19;8472317;27;20107;-73
2022/04/30 08:07:41;;;;;;;15.30;7.10;;;;;;;12.79;48.54;100128.13;8470300;27;20519;-76
2022/04/30 08:11:42;;;;;;;20.60;8.52;;;;;;;12.98;48.37;100126.16;8504857;27;20072;-72
2022/04/30 08:15:43;;;;;;;17.45;8.23;;;;;;;13.05;47.37;100121.16;8508549;27;20047;-73
2022/04/30 08:19:44;;;;;;;22.05;8.43;;;;;;;13.20;47.05;100130.13;8460714;27;20054;-74
2022/04/30 08:23:45;;;;;;;24.05;8.07;;;;;;;13.41;46.96;100123.19;8503584;27;20051;-74
2022/04/30 08:27:46;;;;;;;19.25;8.25;;;;;;;13.60;46.23;100132.00;8510421;27;20060;-74
2022/04/30 08:31:47;;;;;;;18.42;8.35;;;;;;;13.80;45.80;100131.56;8510082;27;20046;-74
2022/04/30 08:35:48;;;;;;;15.40;8.05;;;;;;;13.99;45.03;100131.44;8509757;27;20450;-74
2022/04/30 08:39:49;;;;;;;16.75;7.43;;;;;;;14.09;44.96;100133.09;8452640;27;20153;-74
2022/04/30 08:43:51;;;;;;;16.95;7.10;;;;;;;14.28;44.70;100133.72;8471358;27;20150;-73
2022/04/30 08:47:53;;;;;;;19.58;8.15;;;;;;;14.40;44.16;100134.03;8501971;27;20080;-74
2022/04/30 08:51:53;;;;;;;18.90;8.00;;;;;;;14.41;44.04;100119.31;8487211;27;20394;-73
2022/04/30 08:55:55;;;;;;;19.80;7.57;;;;;;;14.51;44.77;100124.50;8464038;27;20062;-76
2022/04/30 08:59:56;;;;;;;14.25;6.60;;;;;;;14.54;44.26;100121.16;8468173;27;20047;-75
2022/04/30 09:03:58;;;;;;;16.25;6.53;;;;;;;14.61;43.96;100129.69;8501588;27;20043;-74
2022/04/30 09:08:00;;;;;;;17.30;5.95;;;;;;;14.53;43.56;100122.28;8451159;27;20039;-74
2022/04/30 09:12:10;;;;;;;13.18;6.65;;;;;;;14.48;43.50;100114.28;8508347;27;20130;-74
2022/04/30 09:16:22;;;;;;;26.42;9.82;;;;;;;14.53;43.44;100116.84;8417028;28;20044;-75
2022/04/30 09:20:23;;;;;;;11.23;4.97;;;;;;;14.83;43.29;100109.03;8414363;28;20135;-74
2022/04/30 09:24:24;;;;;;;17.73;4.85;;;;;;;15.08;41.37;100100.16;8414457;28;20052;-74
2022/04/30 09:28:30;;;;;;;16.63;4.28;;;;;;;15.27;41.46;100098.00;8419905;28;20097;-74
2022/04/30 09:32:31;;;;;;;14.95;4.85;;;;;;;15.45;41.25;100099.66;8419647;28;20574;-74
2022/04/30 09:40:58;;;;;;;9.90;4.55;;;;;;;15.53;40.14;100096.19;8405142;28;20508;-74
2022/04/30 09:44:59;;;;;;;15.80;5.05;;;;;;;15.32;41.35;100099.78;8437208;27;20496;-73
2022/04/30 09:57:40;;;;;;;10.75;3.17;;;;;;;15.41;40.03;100087.78;8514616;27;20049;-74
2022/04/30 10:01:43;;;;;;;7.00;2.83;;;;;;;15.60;38.64;100085.63;8472364;27;20050;-74
2022/04/30 10:05:44;;;;;;;7.50;2.53;;;;;;;15.79;38.46;100084.53;8507519;27;20046;-74
2022/04/30 10:10:03;;;;;;;8.88;2.80;;;;;;;15.91;36.79;100092.88;8512900;27;20115;-74
2022/04/30 10:14:13;;;;;;;8.82;2.95;;;;;;;16.09;37.18;100086.28;8476716;27;20038;-74
2022/04/30 10:18:17;;;;;;;6.57;3.08;;;;;;;16.15;37.20;100085.00;8471864;27;20181;-74
2022/04/30 10:22:18;;;;;;;5.93;3.15;;;;;;;16.29;37.17;100079.38;8486276;27;20039;-74
2022/04/30 10:26:19;;;;;;;10.65;2.80;;;;;;;16.56;36.84;100067.28;8502967;27;20043;-74
2022/04/30 10:30:24;;;;;;;9.50;3.53;;;;;;;16.79;36.71;100065.97;8511422;27;20134;-74
2022/04/30 10:34:30;;;;;;;15.75;3.30;;;;;;;17.09;36.97;100064.88;8508071;27;20042;-74
2022/04/30 10:38:33;;;;;;;11.05;5.00;;;;;;;17.11;35.79;100057.19;8483747;27;20382;-74
2022/04/30 10:42:45;;;;;;;12.95;3.58;;;;;;;17.03;36.09;100052.53;8500482;27;20058;-74
2022/04/30 10:46:48;;;;;;;10.02;3.50;;;;;;;17.23;36.35;100054.56;8502877;27;20191;-74
2022/04/30 10:51:02;;;;;;;9.50;3.05;;;;;;;17.33;36.47;100052.56;8465245;27;20129;-74
2022/04/30 10:55:04;;;;;;;14.57;3.83;;;;;;;17.63;35.13;100056.88;8465017;27;20504;-74
2022/04/30 10:59:05;;;;;;;9.63;3.22;;;;;;;17.96;34.94;100055.03;8506981;27;20496;-74
2022/04/30 11:03:08;;;;;;;10.45;3.30;;;;;;;17.86;34.56;100054.63;8450828;27;20051;-74
2022/04/30 11:07:09;;;;;;;12.18;3.70;;;;;;;17.87;35.43;100057.00;8497978;27;20050;-74
2022/04/30 11:11:10;;;;;;;13.60;3.63;;;;;;;17.78;35.54;100048.09;8465210;27;20150;-74
2022/04/30 11:15:14;;;;;;;9.68;4.30;;;;;;;17.85;35.28;100042.91;8517961;27;20415;-74
2022/04/30 11:19:17;;;;;;;8.15;3.47;;;;;;;17.80;34.56;100029.44;8495505;27;20129;-75
2022/04/30 11:23:23;;;;;;;9.23;2.90;;;;;;;17.94;34.68;100029.94;8510105;27;20061;-75
2022/04/30 11:27:24;;;;;;;7.90;2.70;;;;;;;18.12;34.70;100031.41;8531819;27;20051;-75
2022/04/30 11:31:25;;;;;;;11.27;4.10;;;;;;;18.27;33.68;100026.44;8485017;27;20646;-73
2022/04/30 11:35:26;;;;;;;7.82;2.67;;;;;;;18.21;33.02;100027.78;8501142;27;20043;-74
2022/04/30 11:39:28;;;;;;;9.60;2.75;;;;;;;18.39;32.55;100023.75;8471534;27;20140;-75
2022/04/30 11:43:29;;;;;;;7.10;3.03;;;;;;;18.33;33.33;100020.41;8459159;27;20428;-76
2022/04/30 11:47:31;;;;;;;11.82;3.15;;;;;;;18.36;33.67;100013.47;8497044;27;20619;-75
2022/04/30 11:51:32;;;;;;;8.02;2.42;;;;;;;18.40;32.59;100008.94;8486287;27;20515;-75
2022/04/30 11:55:37;;;;;;;10.68;2.80;;;;;;;18.13;31.31;100011.16;8511675;27;20043;-74
2022/04/30 11:59:40;;;;;;;7.70;1.98;;;;;;;18.33;27.67;100003.22;8502024;27;20099;-73
2022/04/30 12:03:41;;;;;;;8.07;2.00;;;;;;;18.39;27.28;99996.41;8451448;27;20059;-74
2022/04/30 12:07:47;;;;;;;6.75;1.98;;;;;;;18.39;26.04;99990.94;8514575;27;20506;-74
2022/04/30 12:11:53;;;;;;;4.45;1.88;;;;;;;18.54;27.46;99982.09;8524154;27;20047;-74
2022/04/30 12:16:06;;;;;;;5.20;2.55;;;;;;;18.64;28.96;99981.63;8509604;27;20043;-74
2022/04/30 12:24:43;;;;;;;8.20;3.05;;;;;;;19.18;30.07;99967.69;8494805;27;20072;-74
2022/04/30 12:28:50;;;;;;;5.80;2.22;;;;;;;19.37;27.36;99965.16;8496952;27;20092;-74
2022/04/30 12:32:59;;;;;;;7.57;2.45;;;;;;;19.45;26.38;99956.03;8506554;27;20039;-75
2022/04/30 12:37:01;;;;;;;9.02;2.55;;;;;;;19.63;26.75;99957.31;8506961;27;20059;-75
2022/04/30 12:41:02;;;;;;;9.05;2.92;;;;;;;19.91;25.35;99940.09;8526126;27;20405;-74
2022/04/30 12:45:03;;;;;;;9.32;2.30;;;;;;;19.83;25.85;99935.56;8463563;27;20050;-73
2022/04/30 12:49:04;;;;;;;9.07;3.17;;;;;;;19.90;26.69;99938.47;8443616;27;20545;-75
2022/04/30 12:53:11;;;;;;;10.20;3.13;;;;;;;19.83;26.74;99949.28;8526849;27;20051;-75
2022/04/30 12:57:12;;;;;;;9.57;2.33;;;;;;;19.94;27.03;99933.88;8502621;27;20034;-74
2022/04/30 13:01:13;;;;;;;11.05;3.15;;;;;;;19.95;27.75;99924.53;8496282;27;20039;-74
2022/04/30 13:05:16;;;;;;;8.13;2.53;;;;;;;19.96;28.49;99926.13;8492200;27;20049;-74
2022/04/30 13:13:40;;;;;;;10.68;2.50;;;;;;;19.36;27.64;99926.00;8493254;27;20126;-73
2022/04/30 13:17:41;;;;;;;12.27;2.90;;;;;;;19.26;28.95;99914.72;8524562;27;20070;-74
2022/04/30 13:21:46;;;;;;;7.25;2.08;;;;;;;19.46;27.71;99924.72;8515440;27;20042;-75
2022/04/30 13:25:48;;;;;;;7.38;2.58;;;;;;;19.20;27.06;99910.63;8522487;27;20030;-74
2022/04/30 13:29:49;;;;;;;5.07;3.15;;;;;;;19.00;27.51;99912.41;8497444;27;20104;-75
2022/04/30 13:33:50;;;;;;;9.80;4.32;;;;;;;18.98;28.17;99907.25;8463583;27;20065;-73
2022/04/30 13:37:51;;;;;;;7.32;4.03;;;;;;;19.13;27.96;99904.97;8512838;27;20035;-75
2022/04/30 13:41:52;;;;;;;9.25;3.97;;;;;;;19.23;27.27;99893.53;8459560;28;20487;-75
2022/04/30 13:45:53;;;;;;;12.88;4.68;;;;;;;19.11;28.72;99894.34;8485134;28;20043;-76
2022/04/30 13:49:55;;;;;;;12.23;4.07;;;;;;;19.34;29.30;99889.16;8488817;27;20507;-75
2022/04/30 13:53:56;;;;;;;12.18;4.72;;;;;;;19.29;28.85;99897.63;8462985;27;20040;-75
2022/04/30 13:57:57;;;;;;;10.38;3.50;;;;;;;19.12;29.15;99897.91;8483959;27;20168;-74
2022/04/30 14:02:00;;;;;;;7.03;3.35;;;;;;;18.72;29.61;99884.94;8493357;27;20055;-74
2022/04/30 14:06:01;;;;;;;15.75;7.70;;;;;;;18.32;29.65;99886.75;8484379;27;20051;-74
2022/04/30 14:10:02;;;;;;;16.27;7.30;;;;;;;18.30;30.74;99889.03;8443258;28;20493;-73
2022/04/30 14:18:25;;;;;;;17.55;7.50;;;;;;;18.62;30.50;99879.94;8486685;27;20038;-74
2022/04/30 14:22:27;;;;;;;32.00;13.02;;;;;;;19.90;29.54;99878.19;8472750;28;20503;-74
2022/04/30 14:26:28;;;;;;;16.85;7.72;;;;;;;21.37;27.88;99869.13;8483231;27;20051;-73
2022/04/30 14:30:29;;;;;;;15.02;5.65;;;;;;;22.14;26.04;99860.75;8481431;27;20060;-74
2022/04/30 14:34:31;;;;;;;15.25;6.22;;;;;;;22.27;26.95;99862.16;8489912;27;20446;-74
2022/04/30 14:38:32;;;;;;;6.75;3.25;;;;;;;21.85;26.54;99867.69;8498086;27;20039;-74
2022/04/30 14:42:34;;;;;;;8.65;4.20;;;;;;;21.82;27.80;99868.41;8495750;27;20408;-73
2022/04/30 14:46:35;;;;;;;10.15;4.40;;;;;;;21.24;27.78;99858.66;8497119;27;20039;-74
2022/04/30 14:50:36;;;;;;;8.30;2.95;;;;;;;21.02;27.34;99854.63;8502204;27;20066;-73
2022/04/30 14:54:37;;;;;;;9.05;3.28;;;;;;;20.60;28.14;99857.22;8520500;27;20058;-74
2022/04/30 14:58:39;;;;;;;17.45;6.90;;;;;;;20.46;29.71;99852.19;8491257;27;20055;-74
2022/04/30 15:02:40;;;;;;;11.18;5.43;;;;;;;20.27;29.72;99852.09;8474877;27;20425;-74
2022/04/30 15:06:41;;;;;;;11.75;3.95;;;;;;;20.89;29.12;99851.19;8475127;27;20043;-74
2022/04/30 15:10:42;;;;;;;6.85;3.47;;;;;;;21.55;28.53;99854.94;8498083;27;20047;-74
2022/04/30 15:14:42;;;;;;;14.27;6.32;;;;;;;21.63;28.50;99845.66;8497711;27;20051;-75
2022/04/30 15:18:44;;;;;;;10.07;3.95;;;;;;;21.75;28.11;99834.50;8463744;28;20074;-74
2022/04/30 15:22:44;;;;;;;12.07;3.92;;;;;;;21.67;27.12;99838.28;8442754;28;20074;-75
2022/04/30 15:26:46;;;;;;;14.63;4.05;;;;;;;20.86;28.00;99831.91;8459370;28;20054;-75
2022/04/30 15:30:47;;;;;;;11.95;4.93;;;;;;;19.93;30.29;99833.63;8459335;28;20039;-74
2022/04/30 15:34:48;;;;;;;18.00;6.28;;;;;;;19.46;31.01;99819.88;8458969;28;20051;-74
2022/04/30 15:38:49;;;;;;;7.72;4.18;;;;;;;19.06;31.30;99828.09;8457820;28;20073;-74
2022/04/30 15:42:51;;;;;;;15.82;6.43;;;;;;;18.47;31.61;99823.19;8457947;27;20176;-74
2022/04/30 15:55:39;;;;;;;10.50;4.80;;;;;;;17.81;33.58;99828.88;8328353;28;20049;-75
2022/04/30 15:59:40;;;;;;;14.52;5.00;;;;;;;17.49;33.49;99827.72;8391399;28;20148;-76
2022/04/30 16:03:41;;;;;;;13.68;6.07;;;;;;;17.18;34.11;99817.25;8423024;28;20263;-74
2022/04/30 16:07:42;;;;;;;14.43;5.40;;;;;;;17.11;34.64;99814.28;8423330;28;20059;-75
2022/04/30 16:11:43;;;;;;;16.33;8.77;;;;;;;17.02;35.82;99808.09;8413054;28;20072;-73
2022/04/30 16:15:44;;;;;;;16.25;6.05;;;;;;;16.83;36.68;99805.03;8423330;28;20044;-73
2022/04/30 16:19:45;;;;;;;8.13;4.50;;;;;;;16.66;36.95;99810.63;8390298;28;20044;-74
2022/04/30 16:23:46;;;;;;;10.55;3.83;;;;;;;16.69;37.28;99799.06;8373198;28;20059;-74
2022/04/30 16:27:47;;;;;;;7.25;4.18;;;;;;;16.72;37.63;99803.84;8423874;28;20135;-74
2022/04/30 16:31:48;;;;;;;9.75;4.68;;;;;;;16.44;38.03;99804.31;8428034;28;20410;-73
2022/04/30 16:35:49;;;;;;;10.60;5.32;;;;;;;16.16;38.79;99797.75;8459378;28;20051;-74
2022/04/30 16:39:50;;;;;;;16.23;6.30;;;;;;;15.98;39.29;99793.50;8473049;27;20058;-73
2022/04/30 16:43:50;;;;;;;21.42;10.18;;;;;;;15.81;40.21;99790.88;8529546;27;20134;-74
2022/04/30 16:47:55;;;;;;;26.15;9.80;;;;;;;15.73;40.46;99799.88;8529785;27;20049;-74
2022/04/30 17:00:37;;;;;;;27.63;7.47;;;;;;;15.90;41.67;99783.47;8517845;27;20551;-74
2022/04/30 17:04:38;;;;;;;18.38;8.88;;;;;;;15.86;41.53;99787.97;8496701;27;20051;-74
2022/04/30 17:08:41;;;;;;;18.75;8.75;;;;;;;15.80;42.35;99790.06;8524234;27;20050;-74
2022/04/30 17:12:43;;;;;;;17.95;8.43;;;;;;;15.72;43.15;99792.81;8482482;27;20103;-75
2022/04/30 17:16:44;;;;;;;23.60;10.05;;;;;;;15.62;43.94;99794.78;8514133;27;20133;-74
2022/04/30 17:20:45;;;;;;;23.92;10.32;;;;;;;15.49;44.50;99806.63;8514654;27;20047;-73
2022/04/30 17:24:46;;;;;;;22.52;9.95;;;;;;;15.31;44.94;99810.50;8471380;27;20039;-73
2022/04/30 17:28:47;;;;;;;29.88;11.25;;;;;;;15.11;45.04;99813.91;8479287;27;20047;-73
2022/04/30 17:41:26;;;;;;;33.33;13.20;;;;;;;14.49;45.78;99806.00;8494001;28;19919;-73
2022/04/30 17:45:28;;;;;;;31.08;14.57;;;;;;;14.38;46.42;99803.94;8512195;27;20054;-73
2022/04/30 17:49:29;;;;;;;38.80;18.00;;;;;;;14.25;46.91;99805.63;8517927;27;20080;-72
2022/04/30 17:53:30;;;;;;;158.30;46.35;;;;;;;14.16;48.29;99802.09;8520460;27;20488;-73
2022/04/30 17:57:31;;;;;;;295.42;105.00;;;;;;;14.01;48.27;99805.25;8521356;27;20042;-73
2022/04/30 18:01:33;;;;;;;245.43;77.05;;;;;;;13.76;49.48;99810.22;8527179;27;20073;-72
2022/04/30 18:05:34;;;;;;;194.80;63.13;;;;;;;13.56;50.01;99808.06;8451809;27;20058;-72
2022/04/30 18:09:37;;;;;;;176.55;52.28;;;;;;;13.35;50.57;99820.53;8463922;27;20051;-73
2022/04/30 18:13:40;;;;;;;117.90;34.38;;;;;;;13.14;50.86;99808.59;8480211;27;20062;-73
2022/04/30 18:17:43;;;;;;;152.68;45.20;;;;;;;12.79;52.55;99819.16;8507356;27;20507;-73
2022/04/30 18:21:44;;;;;;;158.18;44.47;;;;;;;12.61;53.14;99822.78;8524785;27;20054;-73
2022/04/30 18:25:48;;;;;;;127.30;40.20;;;;;;;12.56;53.48;99825.59;8516874;27;20050;-72
2022/04/30 18:29:49;;;;;;;108.05;32.90;;;;;;;12.46;53.71;99833.97;8474787;27;20050;-73
2022/04/30 18:33:50;;;;;;;93.68;28.55;;;;;;;12.35;54.18;99835.28;8501731;27;20446;-72
2022/04/30 18:37:52;;;;;;;121.38;34.33;;;;;;;12.19;54.05;99842.91;8467540;27;20051;-72
2022/04/30 18:41:54;;;;;;;114.45;32.92;;;;;;;12.07;54.96;99846.09;8518581;27;20139;-73
2022/04/30 18:45:55;;;;;;;120.28;35.08;;;;;;;11.92;55.39;99843.69;8486384;27;20070;-72
2022/04/30 18:49:56;;;;;;;78.03;28.60;;;;;;;11.80;55.68;99843.38;8512007;27;20242;-73
2022/04/30 19:02:37;;;;;;;86.95;33.72;;;;;;;11.51;56.71;99859.00;8501479;27;20535;-72
2022/04/30 19:06:39;;;;;;;101.80;38.78;;;;;;;11.38;57.02;99855.97;8502114;27;20131;-73
2022/04/30 19:10:40;;;;;;;90.00;35.15;;;;;;;11.27;56.95;99859.94;8478649;27;20051;-72
2022/04/30 19:14:41;;;;;;;82.22;29.95;;;;;;;11.16;57.04;99857.66;8501236;27;20504;-72
2022/04/30 19:18:42;;;;;;;73.25;28.88;;;;;;;11.07;57.47;99865.66;8483362;27;20051;-72
2022/04/30 19:22:46;;;;;;;56.60;23.80;;;;;;;10.99;57.81;99869.03;8465950;27;20054;-72
2022/04/30 19:26:49;;;;;;;47.53;21.00;;;;;;;10.87;58.02;99866.75;8502045;27;20039;-73
2022/04/30 19:30:50;;;;;;;26.33;11.55;;;;;;;10.80;58.02;99862.81;8504309;27;20561;-73
2022/04/30 19:34:52;;;;;;;26.90;12.90;;;;;;;10.72;58.18;99871.56;8509449;27;20055;-72
2022/04/30 19:38:54;;;;;;;35.58;15.65;;;;;;;10.62;58.78;99874.41;8454362;27;20051;-73
2022/04/30 19:42:55;;;;;;;41.92;19.05;;;;;;;10.52;59.35;99870.72;8465446;27;20050;-72
2022/04/30 19:46:57;;;;;;;21.85;8.48;;;;;;;10.34;59.39;99858.00;8485791;27;20438;-72
2022/04/30 19:50:58;;;;;;;31.58;12.52;;;;;;;10.24;59.66;99868.94;8510780;27;20067;-73
2022/04/30 19:54:59;;;;;;;34.92;13.45;;;;;;;10.11;59.45;99874.97;8519374;27;20456;-72
2022/04/30 19:59:00;;;;;;;26.13;10.30;;;;;;;10.04;59.74;99863.72;8529094;27;20050;-73
2022/04/30 20:03:04;;;;;;;29.17;11.52;;;;;;;9.91;59.89;99859.00;8520121;27;20055;-73